Terminal Aerodrome Forecast
Issued by NWS

Home | Current Version | Previous Version | Text Only | Print | Product List | Glossary On
Versions: 1 2 3 4 5 6 7 8 9 10 11 12 13 14 15 16 17 18 19 20 21 22 23
000
FTUS46 KSEW 201700 RRA
TAFSEA
TAF
KSEA 201746Z 2018/2124 21008KT P6SM BKN030 BKN050
     FM201900 22008KT P6SM SCT025 BKN035
     FM202100 24008KT P6SM FEW035 SCT060
     FM210700 22005KT P6SM BKN045
     FM211000 20006KT P6SM OVC020
     FM211200 19005KT P6SM BKN015
     FM211800 22008KT P6SM BKN025
     FM212000 25008KT P6SM SCT035=

USA.gov is the U.S. government's official web portal to all federal, state and local government web resources and services.